createdAt,value
2022-12-17T00:02:43.051Z,68.57
2022-12-17T00:07:57.891Z,69.90
2022-12-17T00:13:13.071Z,62.63
2022-12-17T00:18:28.234Z,66.20
2022-12-17T00:23:44.717Z,62.67
2022-12-17T00:28:59.558Z,63.30
2022-12-17T00:34:14.506Z,70.78
2022-12-17T00:39:29.461Z,64.55
2022-12-17T00:44:44.646Z,61.30
2022-12-17T00:49:59.591Z,68.97
2022-12-17T00:55:14.661Z,60.42
2022-12-17T01:00:30.202Z,63.00
2022-12-17T01:05:45.026Z,72.93
2022-12-17T01:11:00.067Z,66.50
2022-12-17T01:16:20.215Z,61.83
2022-12-17T01:21:36.328Z,61.03
2022-12-17T01:26:51.368Z,63.97
2022-12-17T01:32:06.748Z,68.00
2022-12-17T01:37:22.307Z,65.55
2022-12-17T01:42:37.077Z,66.95
2022-12-17T01:48:30.441Z,69.93
2022-12-17T01:53:47.241Z,69.65
2022-12-17T01:59:02.589Z,68.57
2022-12-17T02:04:17.537Z,64.13
2022-12-17T02:09:47.785Z,67.22
2022-12-17T02:15:16.032Z,61.53
2022-12-17T02:20:37.166Z,59.95
2022-12-17T02:26:11.019Z,69.40
2022-12-17T02:31:26.538Z,65.60
2022-12-17T02:36:41.537Z,63.47
2022-12-17T02:42:00.155Z,63.13
2022-12-17T02:47:16.106Z,61.33
2022-12-17T02:52:34.944Z,61.90
2022-12-17T02:57:53.826Z,64.70
2022-12-17T03:03:09.251Z,64.28
2022-12-17T03:08:24.867Z,60.22
2022-12-17T03:13:40.449Z,65.88
2022-12-17T03:18:55.727Z,63.78
2022-12-17T03:24:11.182Z,64.00
2022-12-17T03:29:26.333Z,68.07
2022-12-17T03:34:41.353Z,64.43
2022-12-17T03:39:56.261Z,64.55
2022-12-17T03:45:11.294Z,65.10
2022-12-17T03:50:26.384Z,65.80
2022-12-17T03:55:41.413Z,68.45
2022-12-17T04:00:56.507Z,63.63
2022-12-17T04:06:11.285Z,62.22
2022-12-17T04:11:26.336Z,57.35
2022-12-17T04:16:41.308Z,67.40
2022-12-17T04:21:56.313Z,62.42
2022-12-17T04:27:11.262Z,62.80
2022-12-17T04:32:27.531Z,60.35
2022-12-17T04:37:43.807Z,61.17
2022-12-17T04:42:58.891Z,60.78
2022-12-17T04:48:23.964Z,55.22
2022-12-17T04:53:39.461Z,57.42
2022-12-17T04:58:54.295Z,58.58
2022-12-17T05:04:09.288Z,55.20
2022-12-17T05:09:24.324Z,61.70
2022-12-17T05:14:39.385Z,55.83
2022-12-17T05:19:54.258Z,55.30
2022-12-17T05:25:09.296Z,55.13
2022-12-17T05:30:24.349Z,58.15
2022-12-17T05:35:39.322Z,51.17
2022-12-17T05:40:54.205Z,56.63
2022-12-17T05:46:09.230Z,57.42
2022-12-17T05:51:24.219Z,53.45
2022-12-17T05:56:39.469Z,51.38
2022-12-17T06:01:54.812Z,57.70
2022-12-17T06:07:09.801Z,56.40
2022-12-17T06:12:24.758Z,48.70
2022-12-17T06:17:39.673Z,52.05
2022-12-17T06:22:54.658Z,52.80
2022-12-17T06:28:16.456Z,55.35
2022-12-17T06:33:31.521Z,43.90
2022-12-17T06:38:46.415Z,59.22
2022-12-17T06:44:01.430Z,48.53
2022-12-17T06:49:16.636Z,50.92
2022-12-17T06:54:31.617Z,53.15
2022-12-17T06:59:46.472Z,49.60
2022-12-17T07:05:01.514Z,52.22
2022-12-17T07:10:16.241Z,50.10
2022-12-17T07:15:31.204Z,51.70
2022-12-17T07:20:47.043Z,49.90
2022-12-17T07:26:02.345Z,48.35
2022-12-17T07:31:17.360Z,57.50
2022-12-17T07:36:32.526Z,54.97
2022-12-17T07:41:47.562Z,51.40
2022-12-17T07:47:02.374Z,52.42
2022-12-17T07:52:17.468Z,47.08
2022-12-17T07:57:32.742Z,51.05
2022-12-17T08:02:47.899Z,50.25
2022-12-17T08:08:02.687Z,53.40
2022-12-17T08:13:22.214Z,50.00
2022-12-17T08:18:37.314Z,53.75
2022-12-17T08:23:52.953Z,49.80
2022-12-17T08:29:08.052Z,52.20
2022-12-17T08:34:23.046Z,54.60
2022-12-17T08:39:38.017Z,55.30
2022-12-17T08:44:53.149Z,53.60
2022-12-17T08:50:09.271Z,56.97
2022-12-17T08:55:24.425Z,56.15
2022-12-17T09:00:39.078Z,53.65
2022-12-17T09:05:54.050Z,54.05
2022-12-17T09:11:09.122Z,57.85
2022-12-17T09:16:24.147Z,57.10
2022-12-17T09:21:39.963Z,58.80
2022-12-17T09:26:54.790Z,54.88
2022-12-17T09:32:09.917Z,58.30
2022-12-17T09:37:24.826Z,57.95
2022-12-17T09:42:51.697Z,61.72
2022-12-17T09:48:08.425Z,62.97
2022-12-17T09:53:37.519Z,65.18
2022-12-17T09:59:11.390Z,56.97
2022-12-17T10:04:51.119Z,51.40
2022-12-17T10:10:09.321Z,50.72
2022-12-17T10:15:24.825Z,46.03
2022-12-17T10:20:42.882Z,44.17
2022-12-17T10:26:08.360Z,45.38
2022-12-17T10:31:34.253Z,43.42
2022-12-17T10:36:49.549Z,38.50
2022-12-17T10:42:04.802Z,39.92
2022-12-17T10:47:19.765Z,39.40
2022-12-17T10:52:48.023Z,37.88
2022-12-17T10:58:04.173Z,37.30
2022-12-17T11:03:19.268Z,40.45
2022-12-17T11:08:35.215Z,36.15
2022-12-17T11:13:52.463Z,36.35
2022-12-17T11:19:07.440Z,33.78
2022-12-17T11:24:32.926Z,37.10
2022-12-17T11:29:47.678Z,42.50
2022-12-17T11:35:05.823Z,34.80
2022-12-17T11:40:36.031Z,42.97
2022-12-17T11:45:58.060Z,34.80
2022-12-17T11:51:36.371Z,34.50
2022-12-17T11:56:53.294Z,34.25
2022-12-17T12:02:28.573Z,33.60
2022-12-17T12:07:49.560Z,38.53
2022-12-17T12:13:22.705Z,34.50
2022-12-17T12:18:46.897Z,36.60
2022-12-17T12:24:06.533Z,28.73
2022-12-17T12:29:28.387Z,29.48
2022-12-17T12:34:45.731Z,28.25
2022-12-17T12:40:05.984Z,25.70
2022-12-17T12:45:40.284Z,30.48
2022-12-17T12:51:03.985Z,25.15
2022-12-17T13:01:34.055Z,26.25
2022-12-17T13:06:42.517Z,28.42
2022-12-17T13:11:38.783Z,21.75
2022-12-17T13:16:48.833Z,22.90
2022-12-17T13:21:45.181Z,20.27
2022-12-17T13:26:41.405Z,19.42
2022-12-17T13:32:06.765Z,20.17
2022-12-17T13:37:08.896Z,22.17
2022-12-17T13:42:05.352Z,21.70
2022-12-17T13:47:01.665Z,20.45
2022-12-17T13:52:02.501Z,21.75
2022-12-17T13:57:13.652Z,23.15
2022-12-17T14:02:23.518Z,19.17
2022-12-17T14:07:20.367Z,20.38
2022-12-17T14:12:23.605Z,18.85
2022-12-17T14:17:21.398Z,20.50
2022-12-17T14:22:26.433Z,23.23
2022-12-17T14:27:25.251Z,20.85
2022-12-17T14:32:23.900Z,20.40
2022-12-17T14:37:22.836Z,22.67
2022-12-17T14:42:25.417Z,19.25
2022-12-17T14:47:23.479Z,22.92
2022-12-17T14:52:25.807Z,20.58
2022-12-17T14:57:23.063Z,24.25
2022-12-17T15:02:23.427Z,22.30
2022-12-17T15:07:23.022Z,19.73
2022-12-17T15:12:19.969Z,20.60
2022-12-17T15:17:16.595Z,21.02
2022-12-17T15:22:14.897Z,24.40
2022-12-17T15:27:16.173Z,18.42
2022-12-17T15:32:17.791Z,21.92
2022-12-17T15:37:15.001Z,22.87
2022-12-17T15:42:29.933Z,24.30
2022-12-17T15:47:26.178Z,22.90
2022-12-17T15:52:22.427Z,26.42
2022-12-17T15:57:19.026Z,23.63
2022-12-17T16:02:15.619Z,23.63
2022-12-17T16:07:12.055Z,23.77
2022-12-17T16:12:08.592Z,25.70
2022-12-17T16:17:04.774Z,21.98
2022-12-17T16:22:00.991Z,22.13
2022-12-17T16:27:04.113Z,22.05
2022-12-17T16:32:00.914Z,24.48
2022-12-17T16:36:57.158Z,23.25
2022-12-17T16:41:53.517Z,23.50
2022-12-17T16:46:49.925Z,18.25
2022-12-17T16:51:48.797Z,24.48
2022-12-17T16:56:45.605Z,24.30
2022-12-17T17:01:44.709Z,30.80
2022-12-17T17:06:42.448Z,26.70
2022-12-17T17:11:38.911Z,29.55
2022-12-17T17:16:35.276Z,27.42
2022-12-17T17:21:38.755Z,24.88
2022-12-17T17:26:35.169Z,30.30
2022-12-17T17:32:09.330Z,25.70
2022-12-17T17:36:47.816Z,28.95
2022-12-17T17:41:44.081Z,26.63
2022-12-17T17:46:40.907Z,26.15
2022-12-17T17:52:08.451Z,26.25
2022-12-17T17:56:55.236Z,29.73
2022-12-17T18:01:51.935Z,29.88
2022-12-17T18:07:16.517Z,27.58
2022-12-17T18:12:24.958Z,33.97
2022-12-17T18:17:21.263Z,26.90
2022-12-17T18:22:17.508Z,28.45
2022-12-17T18:27:13.683Z,30.35
2022-12-17T18:32:10.423Z,29.52
2022-12-17T18:37:06.645Z,30.42
2022-12-17T18:42:21.834Z,32.30
2022-12-17T18:47:18.802Z,34.95
2022-12-17T18:52:17.340Z,28.15
2022-12-17T18:57:13.892Z,38.72
2022-12-17T19:02:11.188Z,50.38
2022-12-17T19:07:07.553Z,44.65
2022-12-17T19:12:04.914Z,42.85
2022-12-17T19:17:01.264Z,38.97
2022-12-17T19:21:59.859Z,33.95
2022-12-17T19:26:56.713Z,36.50
2022-12-17T19:31:53.028Z,33.25
2022-12-17T19:36:49.490Z,30.15
2022-12-17T19:41:45.776Z,30.27
2022-12-17T19:46:42.435Z,31.83
2022-12-17T19:51:42.846Z,40.22
2022-12-17T19:56:39.177Z,38.15
2022-12-17T20:01:37.035Z,36.60
2022-12-17T20:06:34.693Z,47.10
2022-12-17T20:11:33.808Z,40.38
2022-12-17T20:16:30.879Z,43.33
2022-12-17T20:21:27.890Z,42.53
2022-12-17T20:26:24.144Z,39.90
2022-12-17T20:31:20.742Z,43.92
2022-12-17T20:36:17.946Z,36.92
2022-12-17T20:41:21.298Z,33.58
2022-12-17T20:46:18.714Z,35.22
2022-12-17T20:51:19.162Z,37.30
2022-12-17T20:56:16.944Z,31.83
2022-12-17T21:01:14.748Z,31.23
2022-12-17T21:06:12.670Z,38.95
2022-12-17T21:11:09.174Z,38.25
2022-12-17T21:16:06.865Z,36.38
2022-12-17T21:21:04.979Z,43.15
2022-12-17T21:26:10.186Z,36.15
2022-12-17T21:31:13.969Z,32.60
2022-12-17T21:36:10.298Z,31.60
2022-12-17T21:41:08.145Z,32.30
2022-12-17T21:46:05.136Z,31.02
2022-12-17T21:51:03.724Z,30.80
2022-12-17T21:56:04.225Z,30.08
2022-12-17T22:01:10.979Z,33.22
2022-12-17T22:06:16.329Z,29.85
2022-12-17T22:11:19.108Z,28.67
2022-12-17T22:16:16.031Z,32.42
2022-12-17T22:21:12.588Z,32.35
2022-12-17T22:26:10.467Z,34.08
2022-12-17T22:31:26.094Z,35.05
2022-12-17T22:38:01.048Z,29.63
2022-12-17T22:44:49.259Z,28.58
2022-12-17T22:47:14.233Z,29.27
2022-12-17T22:52:10.759Z,24.38
2022-12-17T22:57:36.487Z,24.60
2022-12-17T23:02:23.640Z,26.38
2022-12-17T23:07:20.072Z,24.75
2022-12-17T23:12:35.186Z,27.10
2022-12-17T23:17:31.374Z,31.92
2022-12-17T23:22:27.619Z,36.28
2022-12-17T23:27:23.866Z,27.65
2022-12-17T23:32:20.142Z,27.25
2022-12-17T23:37:16.370Z,27.40
2022-12-17T23:42:12.595Z,26.52
2022-12-17T23:47:08.861Z,24.48
2022-12-17T23:52:05.101Z,35.33
2022-12-17T23:57:01.448Z,28.02
